sensor_id;sensor_type;location;lat;lon;timestamp;pressure;altitude;pressure_sealevel;temperature;humidity
28004;BME280;15330;51.234;6.754;2024-02-15T00:00:10;101447.59;;;12.15;93.11
28004;BME280;15330;51.234;6.754;2024-02-15T00:02:35;101445.16;;;12.11;93.29
28004;BME280;15330;51.234;6.754;2024-02-15T00:05:01;101449.53;;;12.12;93.25
28004;BME280;15330;51.234;6.754;2024-02-15T00:07:26;101446.59;;;12.16;93.01
28004;BME280;15330;51.234;6.754;2024-02-15T00:09:51;101443.47;;;12.10;93.21
28004;BME280;15330;51.234;6.754;2024-02-15T00:12:19;101446.13;;;12.10;93.33
28004;BME280;15330;51.234;6.754;2024-02-15T00:14:44;101451.63;;;12.09;93.37
28004;BME280;15330;51.234;6.754;2024-02-15T00:17:09;101451.13;;;12.15;93.15
28004;BME280;15330;51.234;6.754;2024-02-15T00:19:37;101452.94;;;12.15;92.92
28004;BME280;15330;51.234;6.754;2024-02-15T00:22:03;101451.38;;;12.12;93.23
28004;BME280;15330;51.234;6.754;2024-02-15T00:24:29;101460.03;;;12.16;93.09
28004;BME280;15330;51.234;6.754;2024-02-15T00:26:56;101451.72;;;12.19;92.89
28004;BME280;15330;51.234;6.754;2024-02-15T00:29:21;101453.16;;;12.23;92.77
28004;BME280;15330;51.234;6.754;2024-02-15T00:31:47;101454.31;;;12.09;93.29
28004;BME280;15330;51.234;6.754;2024-02-15T00:34:12;101449.53;;;12.12;93.39
28004;BME280;15330;51.234;6.754;2024-02-15T00:36:37;101451.25;;;12.14;93.12
28004;BME280;15330;51.234;6.754;2024-02-15T00:39:03;101452.69;;;12.18;93.03
28004;BME280;15330;51.234;6.754;2024-02-15T00:41:31;101446.22;;;12.20;92.77
28004;BME280;15330;51.234;6.754;2024-02-15T00:43:59;101449.88;;;12.19;92.78
28004;BME280;15330;51.234;6.754;2024-02-15T00:46:24;101447.09;;;12.21;92.77
28004;BME280;15330;51.234;6.754;2024-02-15T00:48:52;101451.59;;;12.20;92.72
28004;BME280;15330;51.234;6.754;2024-02-15T00:51:17;101451.75;;;12.07;93.41
28004;BME280;15330;51.234;6.754;2024-02-15T00:53:43;101448.03;;;12.20;92.95
28004;BME280;15330;51.234;6.754;2024-02-15T00:56:08;101449.63;;;12.22;92.74
28004;BME280;15330;51.234;6.754;2024-02-15T00:58:33;101442.66;;;12.20;92.69
28004;BME280;15330;51.234;6.754;2024-02-15T01:00:59;101447.19;;;12.19;92.86
28004;BME280;15330;51.234;6.754;2024-02-15T01:03:24;101449.03;;;12.19;92.68
28004;BME280;15330;51.234;6.754;2024-02-15T01:05:51;101440.28;;;12.17;93.12
28004;BME280;15330;51.234;6.754;2024-02-15T01:08:17;101436.84;;;12.15;92.79
28004;BME280;15330;51.234;6.754;2024-02-15T01:10:42;101431.69;;;12.23;92.34
28004;BME280;15330;51.234;6.754;2024-02-15T01:13:07;101429.78;;;12.14;92.57
28004;BME280;15330;51.234;6.754;2024-02-15T01:15:33;101429.78;;;12.14;92.78
28004;BME280;15330;51.234;6.754;2024-02-15T01:17:59;101425.72;;;12.19;92.14
28004;BME280;15330;51.234;6.754;2024-02-15T01:20:24;101429.25;;;12.20;91.91
28004;BME280;15330;51.234;6.754;2024-02-15T01:22:50;101425.13;;;12.16;92.05
28004;BME280;15330;51.234;6.754;2024-02-15T01:25:16;101425.78;;;12.08;92.31
28004;BME280;15330;51.234;6.754;2024-02-15T01:27:42;101422.09;;;12.09;92.38
28004;BME280;15330;51.234;6.754;2024-02-15T01:30:08;101425.25;;;12.14;92.15
28004;BME280;15330;51.234;6.754;2024-02-15T01:32:35;101431.94;;;12.20;91.82
28004;BME280;15330;51.234;6.754;2024-02-15T01:35:02;101437.31;;;12.20;91.93
28004;BME280;15330;51.234;6.754;2024-02-15T01:37:27;101426.84;;;12.17;91.90
28004;BME280;15330;51.234;6.754;2024-02-15T01:39:53;101423.03;;;12.19;91.85
28004;BME280;15330;51.234;6.754;2024-02-15T01:42:18;101424.88;;;12.19;91.77
28004;BME280;15330;51.234;6.754;2024-02-15T01:44:44;101422.91;;;12.21;91.96
28004;BME280;15330;51.234;6.754;2024-02-15T01:47:10;101421.81;;;12.23;91.82
28004;BME280;15330;51.234;6.754;2024-02-15T01:49:36;101422.91;;;12.21;92.00
28004;BME280;15330;51.234;6.754;2024-02-15T01:52:02;101419.97;;;12.24;91.94
28004;BME280;15330;51.234;6.754;2024-02-15T01:54:30;101418.16;;;12.13;92.34
28004;BME280;15330;51.234;6.754;2024-02-15T01:56:57;101410.25;;;12.11;92.50
28004;BME280;15330;51.234;6.754;2024-02-15T01:59:23;101410.00;;;12.15;92.14
28004;BME280;15330;51.234;6.754;2024-02-15T02:01:50;101412.09;;;12.11;92.52
28004;BME280;15330;51.234;6.754;2024-02-15T02:04:16;101409.56;;;11.98;93.11
28004;BME280;15330;51.234;6.754;2024-02-15T02:06:41;101416.13;;;12.05;93.03
28004;BME280;15330;51.234;6.754;2024-02-15T02:09:11;101415.16;;;12.06;92.60
28004;BME280;15330;51.234;6.754;2024-02-15T02:11:41;101418.56;;;12.08;92.54
28004;BME280;15330;51.234;6.754;2024-02-15T02:14:06;101411.28;;;11.99;93.06
28004;BME280;15330;51.234;6.754;2024-02-15T02:16:31;101416.13;;;12.05;92.69
28004;BME280;15330;51.234;6.754;2024-02-15T02:19:00;101413.19;;;12.08;92.63
28004;BME280;15330;51.234;6.754;2024-02-15T02:21:27;101411.50;;;12.07;92.48
28004;BME280;15330;51.234;6.754;2024-02-15T02:23:55;101404.28;;;12.08;92.30
28004;BME280;15330;51.234;6.754;2024-02-15T02:26:22;101406.00;;;12.09;92.31
28004;BME280;15330;51.234;6.754;2024-02-15T02:28:48;101393.06;;;12.03;92.64
28004;BME280;15330;51.234;6.754;2024-02-15T02:31:14;101390.66;;;12.00;92.65
28004;BME280;15330;51.234;6.754;2024-02-15T02:33:40;101384.22;;;11.91;93.09
28004;BME280;15330;51.234;6.754;2024-02-15T02:36:06;101383.25;;;11.92;92.94
28004;BME280;15330;51.234;6.754;2024-02-15T02:38:35;101376.78;;;11.95;93.02
28004;BME280;15330;51.234;6.754;2024-02-15T02:41:03;101380.06;;;11.98;92.89
28004;BME280;15330;51.234;6.754;2024-02-15T02:43:29;101381.28;;;11.94;92.71
28004;BME280;15330;51.234;6.754;2024-02-15T02:45:54;101380.81;;;11.89;92.83
28004;BME280;15330;51.234;6.754;2024-02-15T02:48:20;101381.56;;;11.91;92.93
28004;BME280;15330;51.234;6.754;2024-02-15T02:50:47;101380.81;;;11.89;93.11
28004;BME280;15330;51.234;6.754;2024-02-15T02:53:13;101383.69;;;11.97;92.72
28004;BME280;15330;51.234;6.754;2024-02-15T02:55:40;101377.47;;;11.97;92.73
28004;BME280;15330;51.234;6.754;2024-02-15T02:58:05;101380.06;;;11.87;93.09
28004;BME280;15330;51.234;6.754;2024-02-15T03:00:33;101372.75;;;11.89;93.07
28004;BME280;15330;51.234;6.754;2024-02-15T03:02:58;101367.66;;;11.86;93.03
28004;BME280;15330;51.234;6.754;2024-02-15T03:05:25;101370.34;;;11.86;93.26
28004;BME280;15330;51.234;6.754;2024-02-15T03:07:50;101360.59;;;11.85;93.22
28004;BME280;15330;51.234;6.754;2024-02-15T03:10:16;101366.16;;;11.93;93.15
28004;BME280;15330;51.234;6.754;2024-02-15T03:12:44;101363.03;;;11.88;93.20
28004;BME280;15330;51.234;6.754;2024-02-15T03:15:13;101365.44;;;11.80;93.45
28004;BME280;15330;51.234;6.754;2024-02-15T03:17:42;101355.69;;;11.79;93.41
28004;BME280;15330;51.234;6.754;2024-02-15T03:20:09;101351.78;;;11.83;93.35
28004;BME280;15330;51.234;6.754;2024-02-15T03:22:58;101352.53;;;11.85;92.94
28004;BME280;15330;51.234;6.754;2024-02-15T03:25:24;101343.50;;;11.86;93.05
28004;BME280;15330;51.234;6.754;2024-02-15T03:27:51;101348.72;;;11.87;92.85
28004;BME280;15330;51.234;6.754;2024-02-15T03:30:24;101339.59;;;11.79;93.41
28004;BME280;15330;51.234;6.754;2024-02-15T03:32:50;101347.16;;;11.74;93.23
28004;BME280;15330;51.234;6.754;2024-02-15T03:35:20;101346.06;;;11.76;93.23
28004;BME280;15330;51.234;6.754;2024-02-15T03:37:47;101339.22;;;11.83;93.07
28004;BME280;15330;51.234;6.754;2024-02-15T03:40:16;101345.94;;;11.78;93.25
28004;BME280;15330;51.234;6.754;2024-02-15T03:42:41;101343.25;;;11.78;92.82
28004;BME280;15330;51.234;6.754;2024-02-15T03:45:07;101347.16;;;11.74;93.13
28004;BME280;15330;51.234;6.754;2024-02-15T03:47:33;101341.94;;;11.72;93.16
28004;BME280;15330;51.234;6.754;2024-02-15T03:50:00;101344.28;;;11.65;93.38
28004;BME280;15330;51.234;6.754;2024-02-15T03:52:25;101336.91;;;11.79;93.02
28004;BME280;15330;51.234;6.754;2024-02-15T03:54:50;101344.72;;;11.82;92.72
28004;BME280;15330;51.234;6.754;2024-02-15T03:57:17;101341.81;;;11.85;92.20
28004;BME280;15330;51.234;6.754;2024-02-15T03:59:43;101343.97;;;11.80;92.17
28004;BME280;15330;51.234;6.754;2024-02-15T04:02:08;101344.97;;;11.79;92.24
28004;BME280;15330;51.234;6.754;2024-02-15T04:04:39;101345.22;;;11.76;92.41
28004;BME280;15330;51.234;6.754;2024-02-15T04:07:07;101342.19;;;11.69;92.38
28004;BME280;15330;51.234;6.754;2024-02-15T04:09:33;101352.19;;;11.67;92.61
28004;BME280;15330;51.234;6.754;2024-02-15T04:12:01;101348.16;;;11.73;92.63
28004;BME280;15330;51.234;6.754;2024-02-15T04:14:26;101348.00;;;11.74;92.28
28004;BME280;15330;51.234;6.754;2024-02-15T04:16:51;101350.09;;;11.71;92.34
28004;BME280;15330;51.234;6.754;2024-02-15T04:19:18;101342.91;;;11.71;92.24
28004;BME280;15330;51.234;6.754;2024-02-15T04:21:45;101345.72;;;11.70;92.21
28004;BME280;15330;51.234;6.754;2024-02-15T04:24:11;101345.13;;;11.66;92.32
28004;BME280;15330;51.234;6.754;2024-02-15T04:26:37;101346.34;;;11.62;92.35
28004;BME280;15330;51.234;6.754;2024-02-15T04:29:03;101349.16;;;11.60;92.19
28004;BME280;15330;51.234;6.754;2024-02-15T04:31:29;101349.16;;;11.60;92.21
28004;BME280;15330;51.234;6.754;2024-02-15T04:33:55;101352.69;;;11.61;92.05
28004;BME280;15330;51.234;6.754;2024-02-15T04:36:23;101348.75;;;11.65;91.83
28004;BME280;15330;51.234;6.754;2024-02-15T04:38:50;101354.66;;;11.59;92.11
28004;BME280;15330;51.234;6.754;2024-02-15T04:41:17;101346.09;;;11.65;91.94
28004;BME280;15330;51.234;6.754;2024-02-15T04:43:48;101360.13;;;11.69;91.85
28004;BME280;15330;51.234;6.754;2024-02-15T04:46:14;101353.53;;;11.61;91.81
28004;BME280;15330;51.234;6.754;2024-02-15T04:48:40;101342.81;;;11.61;92.01
28004;BME280;15330;51.234;6.754;2024-02-15T04:51:09;101343.16;;;11.68;91.89
28004;BME280;15330;51.234;6.754;2024-02-15T04:53:36;101341.97;;;11.61;91.72
28004;BME280;15330;51.234;6.754;2024-02-15T04:56:04;101337.44;;;11.61;91.91
28004;BME280;15330;51.234;6.754;2024-02-15T04:58:35;101336.84;;;11.58;91.96
28004;BME280;15330;51.234;6.754;2024-02-15T05:01:02;101338.56;;;11.59;91.75
28004;BME280;15330;51.234;6.754;2024-02-15T05:03:32;101331.38;;;11.59;91.74
28004;BME280;15330;51.234;6.754;2024-02-15T05:06:03;101328.44;;;11.62;91.51
28004;BME280;15330;51.234;6.754;2024-02-15T05:08:32;101327.19;;;11.66;91.52
28004;BME280;15330;51.234;6.754;2024-02-15T05:10:57;101326.47;;;11.64;91.47
28004;BME280;15330;51.234;6.754;2024-02-15T05:13:26;101322.19;;;11.62;91.61
28004;BME280;15330;51.234;6.754;2024-02-15T05:15:51;101319.75;;;11.70;91.14
28004;BME280;15330;51.234;6.754;2024-02-15T05:18:17;101319.66;;;11.60;91.57
28004;BME280;15330;51.234;6.754;2024-02-15T05:20:43;101316.75;;;11.52;91.58
28004;BME280;15330;51.234;6.754;2024-02-15T05:23:08;101316.25;;;11.58;91.66
28004;BME280;15330;51.234;6.754;2024-02-15T05:25:34;101323.06;;;11.62;91.64
28004;BME280;15330;51.234;6.754;2024-02-15T05:28:00;101323.78;;;11.64;91.64
28004;BME280;15330;51.234;6.754;2024-02-15T05:30:26;101322.81;;;11.65;91.61
28004;BME280;15330;51.234;6.754;2024-02-15T05:32:52;101325.38;;;11.67;91.41
28004;BME280;15330;51.234;6.754;2024-02-15T05:35:18;101328.28;;;11.64;91.36
28004;BME280;15330;51.234;6.754;2024-02-15T05:37:43;101326.47;;;11.64;91.60
28004;BME280;15330;51.234;6.754;2024-02-15T05:40:09;101323.06;;;11.62;91.48
28004;BME280;15330;51.234;6.754;2024-02-15T05:42:43;101325.03;;;11.60;91.57
28004;BME280;15330;51.234;6.754;2024-02-15T05:47:48;101316.00;;;11.61;91.54
28004;BME280;15330;51.234;6.754;2024-02-15T05:50:13;101311.88;;;11.57;91.70
28004;BME280;15330;51.234;6.754;2024-02-15T05:52:40;101309.66;;;11.62;91.50
28004;BME280;15330;51.234;6.754;2024-02-15T05:55:07;101314.28;;;11.60;91.74
28004;BME280;15330;51.234;6.754;2024-02-15T05:57:33;101309.66;;;11.62;91.53
28004;BME280;15330;51.234;6.754;2024-02-15T05:59:58;101306.34;;;11.70;91.47
28004;BME280;15330;51.234;6.754;2024-02-15T06:02:27;101316.31;;;11.68;91.28
28004;BME280;15330;51.234;6.754;2024-02-15T06:04:53;101312.81;;;11.68;91.30
28004;BME280;15330;51.234;6.754;2024-02-15T06:07:19;101315.31;;;11.80;91.00
28004;BME280;15330;51.234;6.754;2024-02-15T06:09:46;101316.31;;;11.79;91.57
28004;BME280;15330;51.234;6.754;2024-02-15T06:12:11;101317.41;;;11.77;91.36
28004;BME280;15330;51.234;6.754;2024-02-15T06:14:36;101318.41;;;11.76;91.34
28004;BME280;15330;51.234;6.754;2024-02-15T06:17:02;101316.31;;;11.68;91.60
28004;BME280;15330;51.234;6.754;2024-02-15T06:19:27;101320.34;;;11.74;91.61
28004;BME280;15330;51.234;6.754;2024-02-15T06:21:53;101314.03;;;11.63;91.62
28004;BME280;15330;51.234;6.754;2024-02-15T06:24:18;101305.25;;;11.61;92.23
28004;BME280;15330;51.234;6.754;2024-02-15T06:26:44;101304.91;;;11.55;92.61
28004;BME280;15330;51.234;6.754;2024-02-15T06:29:10;101314.03;;;11.63;92.22
28004;BME280;15330;51.234;6.754;2024-02-15T06:31:54;101301.47;;;11.64;91.90
28004;BME280;15330;51.234;6.754;2024-02-15T06:34:38;101300.38;;;11.66;91.70
28004;BME280;15330;51.234;6.754;2024-02-15T06:37:35;101309.88;;;11.71;91.65
28004;BME280;15330;51.234;6.754;2024-02-15T06:40:20;101310.00;;;11.69;91.31
28004;BME280;15330;51.234;6.754;2024-02-15T06:42:45;101313.53;;;11.70;91.51
28004;BME280;15330;51.234;6.754;2024-02-15T06:45:11;101312.81;;;11.68;91.14
28004;BME280;15330;51.234;6.754;2024-02-15T06:47:41;101306.47;;;11.69;91.61
28004;BME280;15330;51.234;6.754;2024-02-15T06:50:07;101307.66;;;11.76;91.45
28004;BME280;15330;51.234;6.754;2024-02-15T06:52:34;101310.84;;;11.70;91.52
28004;BME280;15330;51.234;6.754;2024-02-15T06:54:59;101311.31;;;11.75;91.44
28004;BME280;15330;51.234;6.754;2024-02-15T06:57:25;101312.94;;;11.66;91.51
28004;BME280;15330;51.234;6.754;2024-02-15T06:59:51;101312.44;;;11.72;91.54
28004;BME280;15330;51.234;6.754;2024-02-15T07:02:17;101313.28;;;11.73;91.24
28004;BME280;15330;51.234;6.754;2024-02-15T07:04:44;101315.81;;;11.74;90.99
28004;BME280;15330;51.234;6.754;2024-02-15T07:07:10;101312.19;;;11.75;91.57
28004;BME280;15330;51.234;6.754;2024-02-15T07:09:35;101309.34;;;11.77;91.36
28004;BME280;15330;51.234;6.754;2024-02-15T07:12:00;101307.78;;;11.74;91.21
28004;BME280;15330;51.234;6.754;2024-02-15T07:14:26;101306.56;;;11.78;91.19
28004;BME280;15330;51.234;6.754;2024-02-15T07:16:53;101306.78;;;11.86;90.88
28004;BME280;15330;51.234;6.754;2024-02-15T07:19:21;101308.84;;;11.83;90.84
28004;BME280;15330;51.234;6.754;2024-02-15T07:21:47;101309.47;;;11.86;90.73
28004;BME280;15330;51.234;6.754;2024-02-15T07:24:12;101310.47;;;11.85;90.87
28004;BME280;15330;51.234;6.754;2024-02-15T07:26:38;101315.69;;;11.87;90.80
28004;BME280;15330;51.234;6.754;2024-02-15T07:29:04;101318.13;;;11.79;91.08
28004;BME280;15330;51.234;6.754;2024-02-15T07:31:31;101314.59;;;11.89;91.07
28004;BME280;15330;51.234;6.754;2024-02-15T07:33:58;101318.13;;;11.79;91.52
28004;BME280;15330;51.234;6.754;2024-02-15T07:36:24;101317.66;;;11.85;91.71
28004;BME280;15330;51.234;6.754;2024-02-15T07:38:50;101314.47;;;11.80;91.74
28004;BME280;15330;51.234;6.754;2024-02-15T07:41:21;101320.69;;;11.80;92.01
28004;BME280;15330;51.234;6.754;2024-02-15T07:43:50;101312.19;;;11.75;91.99
28004;BME280;15330;51.234;6.754;2024-02-15T07:46:16;101315.31;;;11.80;92.60
28004;BME280;15330;51.234;6.754;2024-02-15T07:48:45;101321.41;;;11.82;92.68
28004;BME280;15330;51.234;6.754;2024-02-15T07:51:18;101318.72;;;11.82;92.46
28004;BME280;15330;51.234;6.754;2024-02-15T07:53:45;101323.16;;;11.72;93.10
28004;BME280;15330;51.234;6.754;2024-02-15T07:56:11;101328.13;;;11.77;92.82
28004;BME280;15330;51.234;6.754;2024-02-15T07:58:42;101333.00;;;11.72;93.46
28004;BME280;15330;51.234;6.754;2024-02-15T08:01:11;101325.88;;;11.61;93.72
28004;BME280;15330;51.234;6.754;2024-02-15T08:03:37;101331.81;;;11.64;93.62
28004;BME280;15330;51.234;6.754;2024-02-15T08:06:02;101327.41;;;11.75;93.16
28004;BME280;15330;51.234;6.754;2024-02-15T08:08:34;101326.47;;;11.64;93.40
28004;BME280;15330;51.234;6.754;2024-02-15T08:13:50;101313.06;;;11.64;93.36
28004;BME280;15330;51.234;6.754;2024-02-15T08:16:18;101311.47;;;11.62;93.44
28004;BME280;15330;51.234;6.754;2024-02-15T08:18:43;101313.28;;;11.73;93.62
28004;BME280;15330;51.234;6.754;2024-02-15T08:21:09;101310.19;;;11.77;93.01
28004;BME280;15330;51.234;6.754;2024-02-15T08:23:36;101309.34;;;11.77;92.97
28004;BME280;15330;51.234;6.754;2024-02-15T08:26:01;101311.69;;;11.70;92.95
28004;BME280;15330;51.234;6.754;2024-02-15T08:28:27;101310.19;;;11.77;92.70
28004;BME280;15330;51.234;6.754;2024-02-15T08:30:54;101305.69;;;11.78;92.96
28004;BME280;15330;51.234;6.754;2024-02-15T08:33:21;101295.22;;;11.75;93.38
28004;BME280;15330;51.234;6.754;2024-02-15T08:35:46;101298.38;;;11.80;92.91
28004;BME280;15330;51.234;6.754;2024-02-15T08:38:12;101291.31;;;11.79;92.78
28004;BME280;15330;51.234;6.754;2024-02-15T08:40:37;101290.22;;;11.81;92.90
28004;BME280;15330;51.234;6.754;2024-02-15T08:43:03;101305.81;;;11.87;92.54
28004;BME280;15330;51.234;6.754;2024-02-15T08:45:28;101293.00;;;11.80;92.57
28004;BME280;15330;51.234;6.754;2024-02-15T08:47:54;101289.34;;;11.81;92.63
28004;BME280;15330;51.234;6.754;2024-02-15T08:50:19;101292.13;;;11.91;92.35
28004;BME280;15330;51.234;6.754;2024-02-15T08:52:47;101293.53;;;11.85;92.17
28004;BME280;15330;51.234;6.754;2024-02-15T08:55:13;101285.06;;;11.89;92.16
28004;BME280;15330;51.234;6.754;2024-02-15T08:57:42;101274.75;;;11.85;92.64
28004;BME280;15330;51.234;6.754;2024-02-15T09:00:10;101281.03;;;11.95;92.25
28004;BME280;15330;51.234;6.754;2024-02-15T09:02:45;101275.06;;;11.92;92.36
28004;BME280;15330;51.234;6.754;2024-02-15T09:05:10;101270.06;;;11.87;92.15
28004;BME280;15330;51.234;6.754;2024-02-15T09:07:42;101275.66;;;11.95;91.78
28004;BME280;15330;51.234;6.754;2024-02-15T09:10:09;101277.25;;;11.98;91.72
28004;BME280;15330;51.234;6.754;2024-02-15T09:12:38;101271.06;;;12.07;91.74
28004;BME280;15330;51.234;6.754;2024-02-15T09:15:08;101268.06;;;12.00;91.62
28004;BME280;15330;51.234;6.754;2024-02-15T09:17:36;101284.41;;;11.97;91.41
28004;BME280;15330;51.234;6.754;2024-02-15T09:20:07;101262.81;;;11.99;91.59
28004;BME280;15330;51.234;6.754;2024-02-15T09:22:34;101269.97;;;12.09;91.14
28004;BME280;15330;51.234;6.754;2024-02-15T09:25:02;101276.97;;;12.22;90.67
28004;BME280;15330;51.234;6.754;2024-02-15T09:27:27;101267.88;;;12.34;90.38
28004;BME280;15330;51.234;6.754;2024-02-15T09:29:53;101267.88;;;12.34;89.79
28004;BME280;15330;51.234;6.754;2024-02-15T09:32:18;101257.50;;;12.29;90.10
28004;BME280;15330;51.234;6.754;2024-02-15T09:34:43;101257.97;;;12.34;90.09
28004;BME280;15330;51.234;6.754;2024-02-15T09:37:09;101265.19;;;12.34;89.78
28004;BME280;15330;51.234;6.754;2024-02-15T09:39:36;101267.72;;;12.35;89.67
28004;BME280;15330;51.234;6.754;2024-02-15T09:42:03;101267.97;;;12.53;89.01
28004;BME280;15330;51.234;6.754;2024-02-15T09:44:28;101253.69;;;12.53;89.03
28004;BME280;15330;51.234;6.754;2024-02-15T09:47:05;101261.16;;;12.49;88.58
28004;BME280;15330;51.234;6.754;2024-02-15T09:49:35;101269.34;;;12.48;88.69
28004;BME280;15330;51.234;6.754;2024-02-15T09:52:03;101281.84;;;12.58;88.55
28004;BME280;15330;51.234;6.754;2024-02-15T09:54:30;101264.22;;;12.66;88.18
28004;BME280;15330;51.234;6.754;2024-02-15T09:56:56;101266.31;;;12.62;88.22
28004;BME280;15330;51.234;6.754;2024-02-15T09:59:23;101260.00;;;12.73;87.51
28004;BME280;15330;51.234;6.754;2024-02-15T10:01:49;101264.38;;;12.74;87.69
28004;BME280;15330;51.234;6.754;2024-02-15T10:04:15;101276.06;;;12.63;87.49
28004;BME280;15330;51.234;6.754;2024-02-15T10:06:42;101267.31;;;12.71;87.71
28004;BME280;15330;51.234;6.754;2024-02-15T10:09:28;101279.22;;;12.68;87.58
28004;BME280;15330;51.234;6.754;2024-02-15T10:11:59;101277.19;;;12.61;87.46
28004;BME280;15330;51.234;6.754;2024-02-15T10:14:30;101275.22;;;12.63;87.38
28004;BME280;15330;51.234;6.754;2024-02-15T10:16:56;101274.75;;;12.57;87.53
28004;BME280;15330;51.234;6.754;2024-02-15T10:19:22;101269.94;;;12.51;87.49
28004;BME280;15330;51.234;6.754;2024-02-15T10:21:54;101279.97;;;12.49;87.56
28004;BME280;15330;51.234;6.754;2024-02-15T10:24:23;101279.28;;;12.57;87.57
28004;BME280;15330;51.234;6.754;2024-02-15T10:26:49;101266.44;;;12.61;87.60
28004;BME280;15330;51.234;6.754;2024-02-15T10:29:16;101268.19;;;12.71;87.62
28004;BME280;15330;51.234;6.754;2024-02-15T10:31:56;101259.00;;;12.74;87.04
28004;BME280;15330;51.234;6.754;2024-02-15T10:34:22;101258.56;;;12.69;87.17
28004;BME280;15330;51.234;6.754;2024-02-15T10:40:04;101249.50;;;12.70;86.99
28004;BME280;15330;51.234;6.754;2024-02-15T10:42:33;101254.78;;;12.71;86.76
28004;BME280;15330;51.234;6.754;2024-02-15T10:45:05;101257.91;;;12.86;86.36
28004;BME280;15330;51.234;6.754;2024-02-15T10:47:34;101238.00;;;12.89;86.10
28004;BME280;15330;51.234;6.754;2024-02-15T10:50:02;101242.28;;;13.01;85.71
28004;BME280;15330;51.234;6.754;2024-02-15T10:52:31;101239.56;;;12.91;85.97
28004;BME280;15330;51.234;6.754;2024-02-15T10:55:08;101240.25;;;12.93;85.72
28004;BME280;15330;51.234;6.754;2024-02-15T10:57:37;101237.03;;;12.99;85.78
28004;BME280;15330;51.234;6.754;2024-02-15T11:00:06;101244.53;;;13.05;85.80
28004;BME280;15330;51.234;6.754;2024-02-15T11:02:45;101232.22;;;13.03;85.32
28004;BME280;15330;51.234;6.754;2024-02-15T11:05:16;101222.75;;;13.09;85.18
28004;BME280;15330;51.234;6.754;2024-02-15T11:07:46;101225.66;;;13.26;85.18
28004;BME280;15330;51.234;6.754;2024-02-15T11:10:11;101227.63;;;13.34;84.34
28004;BME280;15330;51.234;6.754;2024-02-15T11:12:42;101216.31;;;13.31;83.84
28004;BME280;15330;51.234;6.754;2024-02-15T11:15:09;101217.16;;;13.50;83.73
28004;BME280;15330;51.234;6.754;2024-02-15T11:22:56;101210.41;;;14.70;78.80
28004;BME280;15330;51.234;6.754;2024-02-15T11:25:31;101208.78;;;14.86;77.69
28004;BME280;15330;51.234;6.754;2024-02-15T11:30:48;101210.28;;;14.71;77.79
28004;BME280;15330;51.234;6.754;2024-02-15T11:33:29;101213.34;;;14.76;78.51
28004;BME280;15330;51.234;6.754;2024-02-15T11:36:10;101205.78;;;14.89;77.66
28004;BME280;15330;51.234;6.754;2024-02-15T11:38:37;101205.91;;;15.16;76.67
28004;BME280;15330;51.234;6.754;2024-02-15T11:41:06;101198.25;;;15.11;76.14
28004;BME280;15330;51.234;6.754;2024-02-15T11:46:16;101193.25;;;15.52;74.34
28004;BME280;15330;51.234;6.754;2024-02-15T11:48:45;101183.25;;;16.06;73.50
28004;BME280;15330;51.234;6.754;2024-02-15T11:56:50;101176.03;;;15.89;73.00
28004;BME280;15330;51.234;6.754;2024-02-15T11:59:41;101176.72;;;15.91;72.64
28004;BME280;15330;51.234;6.754;2024-02-15T12:02:38;101188.13;;;15.76;73.74
28004;BME280;15330;51.234;6.754;2024-02-15T12:05:22;101171.38;;;15.55;73.79
28004;BME280;15330;51.234;6.754;2024-02-15T12:08:06;101174.06;;;15.73;72.87
28004;BME280;15330;51.234;6.754;2024-02-15T12:11:00;101176.00;;;15.80;73.35
28004;BME280;15330;51.234;6.754;2024-02-15T12:13:49;101170.19;;;15.75;72.84
28004;BME280;15330;51.234;6.754;2024-02-15T12:16:35;101167.69;;;16.00;73.20
28004;BME280;15330;51.234;6.754;2024-02-15T12:19:19;101160.47;;;15.82;73.73
28004;BME280;15330;51.234;6.754;2024-02-15T12:21:47;101164.97;;;16.00;72.75
28004;BME280;15330;51.234;6.754;2024-02-15T12:24:13;101162.19;;;16.10;71.74
28004;BME280;15330;51.234;6.754;2024-02-15T12:26:39;101153.22;;;15.65;73.01
28004;BME280;15330;51.234;6.754;2024-02-15T12:29:07;101149.81;;;15.63;73.75
28004;BME280;15330;51.234;6.754;2024-02-15T12:31:35;101152.91;;;15.86;72.88
28004;BME280;15330;51.234;6.754;2024-02-15T12:34:04;101145.97;;;15.83;72.65
28004;BME280;15330;51.234;6.754;2024-02-15T12:36:36;101142.56;;;15.81;72.72
28004;BME280;15330;51.234;6.754;2024-02-15T12:39:04;101129.34;;;15.96;72.58
28004;BME280;15330;51.234;6.754;2024-02-15T12:41:40;101136.66;;;15.78;72.17
28004;BME280;15330;51.234;6.754;2024-02-15T12:44:08;101127.63;;;15.69;72.93
28004;BME280;15330;51.234;6.754;2024-02-15T12:46:35;101122.72;;;15.91;72.52
28004;BME280;15330;51.234;6.754;2024-02-15T12:49:28;101122.53;;;15.66;72.90
28004;BME280;15330;51.234;6.754;2024-02-15T12:52:32;101122.09;;;15.97;71.83
28004;BME280;15330;51.234;6.754;2024-02-15T12:55:10;101107.16;;;15.84;72.81
28004;BME280;15330;51.234;6.754;2024-02-15T12:57:36;101106.47;;;15.82;72.83
28004;BME280;15330;51.234;6.754;2024-02-15T13:00:02;101105.59;;;15.74;72.05
28004;BME280;15330;51.234;6.754;2024-02-15T13:02:37;101103.09;;;15.80;72.57
28004;BME280;15330;51.234;6.754;2024-02-15T13:05:04;101101.72;;;15.76;72.55
28004;BME280;15330;51.234;6.754;2024-02-15T13:07:30;101108.19;;;15.83;72.00
28004;BME280;15330;51.234;6.754;2024-02-15T13:09:56;101105.78;;;15.63;72.71
28004;BME280;15330;51.234;6.754;2024-02-15T13:12:22;101089.28;;;15.66;72.46
28004;BME280;15330;51.234;6.754;2024-02-15T13:14:48;101103.72;;;15.56;72.65
28004;BME280;15330;51.234;6.754;2024-02-15T13:17:15;101086.22;;;15.60;73.07
28004;BME280;15330;51.234;6.754;2024-02-15T13:19:45;101078.28;;;15.59;73.22